Time;durP1;ratioP1;P1;durP2;ratioP2;P2;SDS_P1;SDS_P2;PMS_P1;PMS_P2;Temp;Humidity;BMP_temperature;BMP_pressure;BME280_temperature;BME280_humidity;BME280_pressure;Samples;Min_cycle;Max_cycle;Signal;HPM_P1;HPM_P2
2022/04/01 00:09:03;;;;;;;7.22;1.67;;;;;;;5.88;100.00;92082.94;5104639;23;20056;-91
2022/04/01 00:11:28;;;;;;;9.07;1.77;;;;;;;5.97;100.00;92093.44;4986184;28;20026;-91
2022/04/01 00:13:55;;;;;;;9.57;2.35;;;;;;;5.82;100.00;92091.91;5002510;28;20502;-92
2022/04/01 00:16:21;;;;;;;7.30;2.28;;;;;;;5.78;100.00;92095.09;4993272;28;20117;-92
2022/04/01 00:18:46;;;;;;;6.03;2.38;;;;;;;5.82;100.00;92097.91;5002264;28;20502;-91
2022/04/01 00:21:12;;;;;;;6.13;1.80;;;;;;;5.84;100.00;92105.38;5018029;28;20029;-92
2022/04/01 00:23:37;;;;;;;9.32;2.22;;;;;;;5.84;100.00;92108.75;4985950;28;20426;-93
2022/04/01 00:26:03;;;;;;;7.68;2.38;;;;;;;5.85;100.00;92099.13;5001827;28;20050;-93
2022/04/01 00:28:28;;;;;;;7.25;1.85;;;;;;;5.95;100.00;92101.50;4985473;28;20439;-91
2022/04/01 00:30:54;;;;;;;13.45;3.33;;;;;;;5.76;100.00;92101.66;4985935;28;20342;-91
2022/04/01 00:33:20;;;;;;;9.63;2.50;;;;;;;5.83;100.00;92107.22;4984930;28;20111;-92
2022/04/01 00:35:46;;;;;;;10.35;2.13;;;;;;;6.03;100.00;92098.25;4985590;28;20021;-91
2022/04/01 00:38:12;;;;;;;9.25;2.15;;;;;;;6.09;100.00;92101.47;4985736;28;20033;-92
2022/04/01 00:40:37;;;;;;;9.35;2.15;;;;;;;5.85;100.00;92096.53;4985669;28;20028;-92
2022/04/01 00:43:03;;;;;;;8.40;1.77;;;;;;;5.84;100.00;92093.16;4985619;28;20458;-91
2022/04/01 00:45:29;;;;;;;7.22;2.33;;;;;;;5.75;100.00;92084.53;5001579;28;20018;-93
2022/04/01 00:48:01;;;;;;;9.88;2.10;;;;;;;5.73;100.00;92077.00;5001525;28;20025;-92
2022/04/01 00:50:27;;;;;;;4.80;1.90;;;;;;;5.63;100.00;92072.81;4986481;28;20088;-92
2022/04/01 00:52:53;;;;;;;9.00;2.20;;;;;;;5.69;100.00;92070.88;5001554;28;20072;-91
2022/04/01 00:55:19;;;;;;;12.98;2.60;;;;;;;5.71;100.00;92066.16;4985252;28;20032;-92
2022/04/01 00:57:46;;;;;;;11.95;2.45;;;;;;;5.84;100.00;92061.97;5001395;28;20038;-92
2022/04/01 01:00:12;;;;;;;5.60;1.83;;;;;;;5.84;100.00;92056.00;4985530;28;20025;-92
2022/04/01 01:02:41;;;;;;;7.22;1.90;;;;;;;5.78;100.00;92045.75;4985183;28;20036;-91
2022/04/01 01:05:08;;;;;;;8.63;2.08;;;;;;;5.76;100.00;92052.28;4985454;28;20026;-92
2022/04/01 01:07:36;;;;;;;9.13;2.00;;;;;;;5.67;100.00;92041.81;5001167;28;20033;-92
2022/04/01 01:10:03;;;;;;;6.97;2.35;;;;;;;5.69;100.00;92041.53;5018613;28;20026;-93
2022/04/01 01:12:29;;;;;;;5.25;1.58;;;;;;;5.63;100.00;92038.28;4985069;28;20034;-92
2022/04/01 01:14:54;;;;;;;9.43;2.20;;;;;;;5.63;100.00;92040.88;4984978;28;20030;-92
2022/04/01 01:17:20;;;;;;;11.20;2.30;;;;;;;5.52;100.00;92035.13;4985314;28;20045;-91
2022/04/01 01:19:45;;;;;;;12.20;2.17;;;;;;;5.21;100.00;92030.56;4984514;28;20038;-91
2022/04/01 01:22:13;;;;;;;5.22;2.10;;;;;;;5.18;100.00;92028.56;4985143;28;20452;-92
2022/04/01 01:24:41;;;;;;;7.82;1.83;;;;;;;5.28;100.00;92030.16;5018299;28;20033;-91
2022/04/01 01:27:08;;;;;;;6.55;1.67;;;;;;;5.30;100.00;92020.25;5000908;28;20033;-92
2022/04/01 01:29:37;;;;;;;3.70;1.80;;;;;;;5.39;100.00;92021.09;5001039;28;20025;-92
2022/04/01 01:32:05;;;;;;;5.60;2.20;;;;;;;5.26;100.00;92017.50;5001205;28;20030;-91
2022/04/01 01:34:34;;;;;;;5.35;1.52;;;;;;;5.30;100.00;92015.06;4984302;28;20065;-91
2022/04/01 01:37:01;;;;;;;5.05;1.48;;;;;;;5.50;100.00;92019.06;5001568;28;20113;-91
2022/04/01 01:39:27;;;;;;;5.60;1.60;;;;;;;5.54;100.00;92008.84;5000680;28;20037;-92
2022/04/01 01:41:53;;;;;;;5.05;1.38;;;;;;;5.69;100.00;92008.50;5000493;28;20398;-91
2022/04/01 01:44:19;;;;;;;8.55;1.73;;;;;;;5.70;100.00;92001.50;5000488;28;20030;-92
2022/04/01 01:46:45;;;;;;;6.07;1.60;;;;;;;5.56;100.00;91996.34;5000408;28;20048;-91
2022/04/01 01:49:11;;;;;;;5.35;1.27;;;;;;;5.53;100.00;92002.91;5000348;28;20033;-92
2022/04/01 01:57:06;;;;;;;4.13;1.25;;;;;;;5.52;100.00;92004.72;5017761;28;20233;-92
2022/04/01 01:59:33;;;;;;;6.80;1.27;;;;;;;5.27;100.00;92002.66;5000269;28;20065;-91
2022/04/01 02:02:00;;;;;;;2.40;1.27;;;;;;;5.24;100.00;91986.63;4984270;28;20057;-92
2022/04/01 02:04:25;;;;;;;5.30;1.45;;;;;;;5.18;100.00;91982.59;4984575;28;20026;-92
2022/04/01 02:06:51;;;;;;;6.25;1.65;;;;;;;5.12;100.00;91980.41;4984122;28;20048;-91
2022/04/01 02:09:17;;;;;;;6.85;2.00;;;;;;;5.27;100.00;91976.69;5017505;28;20038;-93
2022/04/01 02:11:43;;;;;;;9.57;1.65;;;;;;;5.19;100.00;91989.34;5000222;28;20118;-92
2022/04/01 02:14:11;;;;;;;5.15;1.42;;;;;;;5.18;100.00;91987.78;5000098;28;20026;-92
2022/04/01 02:16:43;;;;;;;5.50;1.63;;;;;;;5.19;100.00;91993.75;4999821;28;20473;-91
2022/04/01 02:19:09;;;;;;;7.32;1.95;;;;;;;5.19;100.00;91986.72;4984243;28;20067;-92
2022/04/01 02:21:34;;;;;;;5.78;1.50;;;;;;;5.21;100.00;91996.81;4984005;28;20022;-91
2022/04/01 02:24:00;;;;;;;8.07;1.83;;;;;;;5.20;100.00;91990.09;4983878;28;20028;-92
2022/04/01 02:26:25;;;;;;;10.60;1.73;;;;;;;5.43;100.00;91987.53;4983432;28;20442;-92
2022/04/01 02:28:51;;;;;;;11.23;1.95;;;;;;;6.14;100.00;91991.41;4999659;28;20065;-91
2022/04/01 02:31:18;;;;;;;8.23;1.73;;;;;;;6.71;100.00;91987.38;4983196;28;20029;-92
2022/04/01 02:33:43;;;;;;;7.47;1.33;;;;;;;6.66;100.00;91985.66;4999808;28;20386;-91
2022/04/01 02:36:12;;;;;;;4.38;1.38;;;;;;;6.71;100.00;91975.16;4999477;28;20026;-92
2022/04/01 02:38:40;;;;;;;6.32;1.90;;;;;;;6.78;100.00;91980.66;5000010;28;20026;-92
2022/04/01 02:41:06;;;;;;;4.20;1.30;;;;;;;6.74;100.00;92000.56;4999511;28;20073;-92
2022/04/01 02:43:33;;;;;;;4.28;1.30;;;;;;;6.77;100.00;92001.81;4983491;28;20026;-92
2022/04/01 02:45:58;;;;;;;6.13;1.40;;;;;;;6.83;100.00;92008.38;4999811;28;20022;-92
2022/04/01 02:48:24;;;;;;;5.57;1.73;;;;;;;6.66;100.00;92003.88;4998831;28;20113;-91
2022/04/01 02:50:49;;;;;;;6.78;2.10;;;;;;;6.23;100.00;91995.59;4999422;28;20053;-92
2022/04/01 02:53:16;;;;;;;3.33;1.05;;;;;;;6.49;100.00;92002.75;4999442;28;20030;-91
2022/04/01 02:55:41;;;;;;;6.75;1.35;;;;;;;6.61;100.00;91996.22;4999422;28;20030;-91
2022/04/01 02:58:08;;;;;;;10.80;1.75;;;;;;;6.59;100.00;92019.19;4999362;28;20036;-91
2022/04/01 03:00:35;;;;;;;7.00;1.38;;;;;;;6.53;100.00;92000.31;4999446;28;20439;-91
2022/04/01 03:03:06;;;;;;;5.50;1.20;;;;;;;6.45;100.00;91995.84;4999833;28;20021;-92
2022/04/01 03:05:33;;;;;;;10.63;2.00;;;;;;;6.33;100.00;91991.19;4983902;28;20084;-91
2022/04/01 03:07:58;;;;;;;5.93;1.52;;;;;;;6.23;100.00;91989.63;4999331;28;20324;-92
2022/04/01 03:10:26;;;;;;;9.52;1.60;;;;;;;6.07;100.00;91992.59;4982918;28;20036;-91
2022/04/01 03:12:52;;;;;;;9.50;1.50;;;;;;;6.01;100.00;91993.00;4983441;28;20036;-91
2022/04/01 03:15:17;;;;;;;3.30;1.45;;;;;;;6.07;100.00;91995.19;4999066;28;20362;-92
2022/04/01 03:17:44;;;;;;;7.30;2.10;;;;;;;6.31;100.00;92001.13;4999103;28;20044;-91
2022/04/01 03:20:13;;;;;;;4.07;1.40;;;;;;;6.27;100.00;91995.00;4998611;28;20041;-91
2022/04/01 03:22:40;;;;;;;8.27;1.38;;;;;;;6.30;100.00;91992.56;4999785;28;20026;-91
2022/04/01 03:25:13;;;;;;;4.60;1.20;;;;;;;6.17;100.00;91996.00;4998966;28;20056;-92
2022/04/01 03:27:39;;;;;;;6.03;1.67;;;;;;;6.05;100.00;91996.56;4982979;28;20026;-92
2022/04/01 03:30:09;;;;;;;8.80;1.27;;;;;;;6.12;100.00;91996.13;4998627;28;20030;-92
2022/04/01 03:32:37;;;;;;;4.53;1.30;;;;;;;6.12;100.00;91986.50;4999502;28;20117;-92
2022/04/01 03:35:09;;;;;;;2.45;1.10;;;;;;;6.04;100.00;91997.63;4998934;28;20032;-92
2022/04/01 03:37:35;;;;;;;3.95;1.17;;;;;;;5.99;100.00;92006.28;4982886;28;20030;-92
2022/04/01 03:40:01;;;;;;;4.60;1.00;;;;;;;6.11;100.00;92010.19;4982876;28;20439;-91
2022/04/01 03:42:30;;;;;;;2.72;0.82;;;;;;;6.39;100.00;92012.66;4966991;28;20030;-92
2022/04/01 03:44:58;;;;;;;5.43;1.00;;;;;;;6.81;100.00;92007.94;4985627;28;20022;-92
2022/04/01 03:47:29;;;;;;;4.55;1.08;;;;;;;6.69;100.00;92018.13;5002845;28;20116;-92
2022/04/01 03:49:59;;;;;;;2.50;1.40;;;;;;;6.51;100.00;92018.06;4986633;28;20026;-91
2022/04/01 03:52:25;;;;;;;9.00;1.45;;;;;;;6.36;100.00;92001.78;4986548;28;20030;-90
2022/04/01 03:54:55;;;;;;;7.65;1.23;;;;;;;6.30;100.00;92008.16;5002849;28;20449;-91
2022/04/01 03:57:24;;;;;;;6.10;1.63;;;;;;;6.15;100.00;91998.91;4985923;28;20014;-92
2022/04/01 03:59:53;;;;;;;5.15;1.20;;;;;;;5.97;100.00;91998.00;5002436;28;20131;-91
2022/04/01 04:02:19;;;;;;;2.90;1.33;;;;;;;5.97;100.00;91997.25;5002424;28;20021;-91
2022/04/01 04:04:46;;;;;;;4.55;1.25;;;;;;;6.04;100.00;92006.19;4986313;28;20029;-91
2022/04/01 04:07:11;;;;;;;6.53;1.67;;;;;;;5.92;100.00;92008.53;4986294;28;20017;-90
2022/04/01 04:09:40;;;;;;;3.70;1.40;;;;;;;5.90;100.00;92018.47;5002570;28;20055;-91
2022/04/01 04:12:07;;;;;;;2.00;1.10;;;;;;;6.07;100.00;92020.41;5002291;28;20065;-92
2022/04/01 04:14:33;;;;;;;7.15;1.63;;;;;;;5.96;100.00;92022.47;4985684;28;20026;-90
2022/04/01 04:17:06;;;;;;;4.50;1.33;;;;;;;6.05;100.00;92038.16;4986082;28;20120;-92
2022/04/01 04:19:51;;;;;;;4.78;1.00;;;;;;;6.10;100.00;92032.84;5002252;28;20466;-92
2022/04/01 04:25:39;;;;;;;4.35;1.17;;;;;;;6.00;100.00;92030.44;5019563;28;20363;-92
2022/04/01 04:28:10;;;;;;;3.60;1.20;;;;;;;5.97;100.00;92031.78;5001983;28;20026;-91
2022/04/01 04:30:48;;;;;;;2.63;0.88;;;;;;;5.85;100.00;92018.56;4985858;28;20032;-90
2022/04/01 04:33:16;;;;;;;4.43;1.30;;;;;;;5.76;100.00;92010.69;5001912;28;20025;-92
2022/04/01 04:35:42;;;;;;;2.50;0.90;;;;;;;5.64;100.00;92006.03;4985623;28;20034;-91
2022/04/01 04:38:10;;;;;;;2.47;0.90;;;;;;;5.31;100.00;92014.78;5001673;28;20037;-90
2022/04/01 04:40:36;;;;;;;4.38;0.85;;;;;;;5.48;100.00;92005.59;5001869;28;20363;-91
2022/04/01 04:43:02;;;;;;;2.00;0.88;;;;;;;5.50;100.00;92001.66;5001837;28;20026;-90
2022/04/01 04:45:28;;;;;;;1.50;0.68;;;;;;;5.27;100.00;92007.84;5000995;28;20038;-90
2022/04/01 04:47:54;;;;;;;1.52;0.70;;;;;;;5.48;100.00;92008.19;4985561;28;20111;-91
2022/04/01 04:50:21;;;;;;;2.05;0.70;;;;;;;5.42;100.00;92011.97;5019014;28;20036;-90
2022/04/01 04:52:53;;;;;;;3.17;1.65;;;;;;;6.06;100.00;92005.88;4985107;28;20033;-89
2022/04/01 04:55:20;;;;;;;7.70;2.00;;;;;;;6.48;100.00;92009.03;4984937;28;20036;-90
2022/04/01 04:57:51;;;;;;;9.95;1.98;;;;;;;6.45;100.00;92008.84;4985039;28;20040;-90
2022/04/01 05:00:19;;;;;;;4.68;1.90;;;;;;;5.95;100.00;92020.94;5001357;28;20053;-90
2022/04/01 05:03:07;;;;;;;7.25;2.20;;;;;;;6.14;100.00;92018.19;5001601;28;20036;-90
2022/04/01 05:05:54;;;;;;;7.68;2.20;;;;;;;5.93;100.00;92013.41;5001272;28;20362;-90
2022/04/01 05:08:41;;;;;;;6.88;1.98;;;;;;;6.27;100.00;92024.38;4985137;28;20107;-90
2022/04/01 05:11:12;;;;;;;9.07;2.13;;;;;;;6.69;100.00;92023.34;5018647;28;20025;-90
2022/04/01 05:13:59;;;;;;;4.38;1.85;;;;;;;6.70;100.00;92033.47;5018540;28;20037;-89
2022/04/01 05:16:42;;;;;;;7.68;2.03;;;;;;;6.61;100.00;92038.63;5018414;28;20112;-90
2022/04/01 05:19:09;;;;;;;;;;;;;;;6.65;100.00;92031.75;4985341;28;20128;-90
2022/04/01 05:21:55;;;;;;;6.93;1.95;;;;;;;6.49;100.00;92026.16;4997587;28;20227;-90
2022/04/01 05:24:27;;;;;;;8.60;2.03;;;;;;;6.38;100.00;92035.28;4984570;28;20026;-89
2022/04/01 05:26:55;;;;;;;9.73;2.20;;;;;;;6.63;100.00;92030.50;4996052;28;20030;-89
2022/04/01 05:29:25;;;;;;;8.32;2.35;;;;;;;6.57;100.00;92016.84;4985520;28;20398;-90
2022/04/01 05:32:05;;;;;;;14.02;2.15;;;;;;;6.56;100.00;92030.19;4984611;28;20030;-89
2022/04/01 05:34:43;;;;;;;14.30;2.22;;;;;;;6.51;100.00;92023.28;4999917;28;20033;-89
2022/04/01 05:37:09;;;;;;;10.05;2.40;;;;;;;6.42;100.00;92022.44;4972470;28;20030;-89
2022/04/01 05:39:37;;;;;;;8.55;2.20;;;;;;;6.50;100.00;92019.13;4981228;28;20462;-91
2022/04/01 05:42:05;;;;;;;6.63;2.10;;;;;;;6.52;100.00;92032.59;5007367;28;20132;-90
2022/04/01 05:44:32;;;;;;;6.90;2.10;;;;;;;6.59;100.00;92032.94;5016792;28;20037;-90
2022/04/01 05:46:58;;;;;;;10.90;2.40;;;;;;;6.67;100.00;92033.28;5016782;28;20022;-89
2022/04/01 05:49:25;;;;;;;13.10;1.95;;;;;;;6.63;100.00;92048.72;5017358;28;20030;-89
2022/04/01 05:51:50;;;;;;;8.45;2.65;;;;;;;6.60;100.00;92050.09;5000668;28;20029;-89
2022/04/01 05:54:19;;;;;;;11.77;2.42;;;;;;;6.69;100.00;92060.56;5018107;28;20103;-89
2022/04/01 05:56:48;;;;;;;15.43;3.15;;;;;;;6.64;100.00;92063.25;5016842;28;20030;-89
2022/04/01 05:59:21;;;;;;;11.73;2.75;;;;;;;6.68;100.00;92069.44;5016865;28;20037;-89
2022/04/01 06:02:09;;;;;;;5.30;1.83;;;;;;;6.72;100.00;92074.78;5018005;28;20025;-88
2022/04/01 06:05:03;;;;;;;9.88;2.83;;;;;;;6.75;100.00;92064.56;5017491;28;20022;-89
2022/04/01 06:07:47;;;;;;;8.73;2.78;;;;;;;6.66;100.00;92068.94;5016097;28;20044;-89
2022/04/01 06:10:31;;;;;;;;;;;;;;;6.62;100.00;92074.00;5017157;28;20045;-88
2022/04/01 06:13:06;;;;;;;6.70;3.03;;;;;;;6.62;100.00;92073.22;5017777;28;19992;-89
2022/04/01 06:15:54;;;;;;;6.38;2.22;;;;;;;6.59;100.00;92066.00;5017231;28;20104;-89
2022/04/01 06:18:38;;;;;;;9.45;2.63;;;;;;;6.78;100.00;92058.75;5015557;28;20447;-88
2022/04/01 06:21:04;;;;;;;;;;;;;;;6.90;100.00;92054.81;5016122;28;20416;-89
2022/04/01 06:23:49;;;;;;;16.80;3.55;;;;;;;7.06;100.00;92052.56;5000102;28;19944;-87
2022/04/01 06:26:15;;;;;;;12.38;2.95;;;;;;;7.11;100.00;92065.44;4996399;28;20451;-88
2022/04/01 06:28:50;;;;;;;10.70;3.05;;;;;;;7.05;100.00;92064.06;4999913;28;20022;-89
2022/04/01 06:31:17;;;;;;;10.60;2.50;;;;;;;7.14;100.00;92059.63;4999989;28;20104;-89
2022/04/01 06:34:04;;;;;;;6.63;2.38;;;;;;;7.25;100.00;92064.56;4999917;28;20101;-89
2022/04/01 06:36:45;;;;;;;14.20;3.03;;;;;;;7.32;100.00;92072.72;5000095;28;20036;-89
2022/04/01 06:39:25;;;;;;;11.52;2.47;;;;;;;7.47;100.00;92082.72;5017118;28;20439;-89
2022/04/01 06:41:55;;;;;;;12.75;3.45;;;;;;;7.27;100.00;92091.06;4983856;28;20030;-88
2022/04/01 06:44:20;;;;;;;7.60;2.38;;;;;;;7.47;100.00;92082.72;4983946;28;20033;-88
2022/04/01 06:46:48;;;;;;;10.13;2.70;;;;;;;7.65;100.00;92064.50;4999980;28;20026;-89
2022/04/01 06:49:14;;;;;;;6.55;1.95;;;;;;;7.83;100.00;92075.72;4983684;28;20033;-88
2022/04/01 06:51:40;;;;;;;16.30;2.25;;;;;;;8.16;100.00;92058.81;4999843;28;20124;-89
2022/04/01 06:54:07;;;;;;;6.00;2.00;;;;;;;8.04;100.00;92062.84;4999523;28;20083;-87
2022/04/01 06:56:33;;;;;;;10.40;2.83;;;;;;;8.17;100.00;92066.34;4999810;28;20030;-90
2022/04/01 06:58:58;;;;;;;13.73;2.42;;;;;;;8.10;100.00;92066.03;4999466;28;20121;-88
2022/04/01 07:01:25;;;;;;;11.27;2.55;;;;;;;8.03;100.00;92069.13;4983882;28;20108;-88
2022/04/01 07:03:52;;;;;;;5.25;2.15;;;;;;;8.16;100.00;92066.66;5016799;28;20041;-88
2022/04/01 07:06:18;;;;;;;5.90;2.22;;;;;;;8.52;100.00;92077.81;4983478;28;20029;-88
2022/04/01 07:08:43;;;;;;;15.75;3.00;;;;;;;8.42;100.00;92078.91;5016862;28;20033;-88
2022/04/01 07:11:09;;;;;;;14.10;2.40;;;;;;;8.26;100.00;92087.19;4999796;28;20354;-88
2022/04/01 07:13:34;;;;;;;13.93;2.50;;;;;;;8.41;100.00;92091.19;5016970;28;20030;-88
2022/04/01 07:16:00;;;;;;;12.27;2.42;;;;;;;8.55;100.00;92095.50;4999496;28;20034;-89
2022/04/01 07:18:26;;;;;;;6.25;2.17;;;;;;;8.47;100.00;92100.38;5000886;28;20034;-89
2022/04/01 07:20:52;;;;;;;9.50;2.30;;;;;;;8.66;100.00;92095.94;5020677;28;20037;-88
2022/04/01 07:23:32;;;;;;;9.88;2.65;;;;;;;8.71;100.00;92093.94;5003734;28;20125;-88
2022/04/01 07:25:58;;;;;;;8.60;2.33;;;;;;;8.62;100.00;92101.78;5003227;28;20018;-88
2022/04/01 07:28:23;;;;;;;12.50;2.65;;;;;;;8.99;100.00;92096.16;5021150;28;20153;-89
2022/04/01 07:30:50;;;;;;;8.35;2.28;;;;;;;8.88;100.00;92097.56;5021334;28;20058;-89
2022/04/01 07:33:16;;;;;;;6.80;2.55;;;;;;;8.79;100.00;92110.66;4987257;28;20026;-89
2022/04/01 07:35:44;;;;;;;8.70;2.55;;;;;;;9.19;100.00;92097.31;5003316;28;20407;-88
2022/04/01 07:38:09;;;;;;;6.30;1.95;;;;;;;8.97;100.00;92097.53;5003409;28;20064;-88
2022/04/01 07:40:35;;;;;;;11.10;2.85;;;;;;;8.55;100.00;92103.34;5003576;28;20116;-88
2022/04/01 07:43:00;;;;;;;11.50;2.88;;;;;;;8.42;100.00;92108.38;4986912;28;20029;-88
2022/04/01 07:45:26;;;;;;;12.15;3.05;;;;;;;8.81;100.00;92105.09;4986710;28;20018;-88
2022/04/01 07:47:52;;;;;;;5.63;2.75;;;;;;;9.41;100.00;92107.81;5003118;28;20036;-88
2022/04/01 07:50:19;;;;;;;9.50;2.70;;;;;;;9.37;100.00;92109.53;5002923;28;20424;-88
2022/04/01 07:52:44;;;;;;;8.40;2.55;;;;;;;9.28;100.00;92112.16;5003106;28;20034;-89
2022/04/01 07:55:16;;;;;;;11.75;2.95;;;;;;;9.39;100.00;92112.56;5002557;28;20508;-89
2022/04/01 07:57:43;;;;;;;10.10;2.67;;;;;;;9.45;100.00;92101.63;4986689;28;20069;-88
2022/04/01 08:00:10;;;;;;;14.63;3.17;;;;;;;9.59;100.00;92111.88;5002458;28;20144;-88
2022/04/01 08:02:36;;;;;;;6.07;2.80;;;;;;;9.52;100.00;92114.22;5020037;28;20036;-89
2022/04/01 08:05:02;;;;;;;14.13;3.55;;;;;;;9.39;100.00;92115.19;5002773;28;20034;-88
2022/04/01 08:07:27;;;;;;;11.55;3.03;;;;;;;9.29;100.00;92111.09;4988947;28;20042;-88
2022/04/01 08:09:53;;;;;;;12.55;3.40;;;;;;;9.31;100.00;92098.47;4990664;28;20029;-89
2022/04/01 08:12:19;;;;;;;10.27;3.00;;;;;;;9.85;100.00;92113.56;4986450;28;20033;-89
2022/04/01 08:14:44;;;;;;;13.18;3.15;;;;;;;10.34;100.00;92112.28;4985862;28;20116;-90
2022/04/01 08:17:14;;;;;;;15.85;3.72;;;;;;;9.44;95.21;92102.72;5002821;28;20447;-89
2022/04/01 08:19:40;;;;;;;18.45;3.42;;;;;;;9.70;98.76;92099.19;5004071;28;20042;-88
2022/04/01 08:22:06;;;;;;;18.58;3.70;;;;;;;10.29;100.00;92107.28;5020475;28;20076;-89
2022/04/01 08:24:31;;;;;;;11.00;3.10;;;;;;;10.16;96.29;92122.91;4986137;28;20390;-88
2022/04/01 08:26:59;;;;;;;12.52;3.20;;;;;;;10.51;98.93;92115.88;4998689;28;20124;-89
2022/04/01 08:29:27;;;;;;;23.38;4.40;;;;;;;9.64;87.64;92089.25;4996814;28;20030;-90
2022/04/01 08:31:54;;;;;;;17.70;3.78;;;;;;;9.21;95.40;92111.91;5002224;28;20041;-90
2022/04/01 08:34:19;;;;;;;8.77;3.50;;;;;;;9.84;91.97;92113.88;4982172;28;20085;-89
2022/04/01 08:36:45;;;;;;;13.98;3.95;;;;;;;10.52;86.68;92133.91;4982956;28;20034;-91
2022/04/01 08:39:10;;;;;;;10.40;3.22;;;;;;;9.96;100.00;92121.81;4982489;28;20034;-91
2022/04/01 08:41:36;;;;;;;13.40;3.42;;;;;;;9.75;91.45;92111.31;4982692;28;20038;-90
2022/04/01 08:44:03;;;;;;;13.57;3.78;;;;;;;9.94;97.92;92108.28;4982228;28;20077;-90
2022/04/01 08:46:29;;;;;;;9.30;3.22;;;;;;;10.31;94.98;92121.53;4982104;28;20061;-91
2022/04/01 08:48:55;;;;;;;13.88;3.30;;;;;;;10.70;92.16;92115.41;4982270;28;20030;-90
2022/04/01 08:51:20;;;;;;;7.88;3.30;;;;;;;10.41;87.34;92109.19;4966119;28;20037;-90
2022/04/01 08:53:46;;;;;;;14.85;3.17;;;;;;;10.50;92.58;92122.97;4966202;28;20026;-90
2022/04/01 08:56:12;;;;;;;9.40;2.58;;;;;;;10.16;97.16;92122.91;4982144;28;20034;-90
2022/04/01 08:58:38;;;;;;;7.85;2.70;;;;;;;10.29;100.00;92142.03;4982104;28;20084;-90
2022/04/01 09:01:07;;;;;;;18.55;2.83;;;;;;;10.65;100.00;92126.84;4982084;28;20030;-90
2022/04/01 09:03:34;;;;;;;13.25;3.35;;;;;;;10.29;100.00;92139.44;4982643;28;20124;-90
2022/04/01 09:06:03;;;;;;;16.58;3.38;;;;;;;10.27;100.00;92146.09;4982148;28;20060;-89
2022/04/01 09:08:35;;;;;;;10.60;2.80;;;;;;;9.67;100.00;92139.06;4965796;28;20126;-90
2022/04/01 09:11:04;;;;;;;12.45;2.80;;;;;;;10.33;100.00;92129.88;4982182;28;20344;-91
2022/04/01 09:13:32;;;;;;;8.43;2.33;;;;;;;9.70;100.00;92125.34;4997987;28;20093;-91
2022/04/01 09:15:59;;;;;;;9.80;2.80;;;;;;;9.82;100.00;92137.72;4997866;28;20026;-90
2022/04/01 09:18:42;;;;;;;12.68;2.67;;;;;;;10.02;100.00;92146.69;4981488;28;20428;-90
2022/04/01 09:21:09;;;;;;;4.95;2.05;;;;;;;10.43;100.00;92143.66;4981746;28;20030;-90
2022/04/01 09:23:35;;;;;;;7.65;1.92;;;;;;;9.89;100.00;92143.25;4981641;28;20435;-91
2022/04/01 09:26:02;;;;;;;6.70;2.08;;;;;;;9.62;100.00;92144.47;4981186;28;20062;-90
2022/04/01 09:28:29;;;;;;;8.88;2.08;;;;;;;10.10;100.00;92160.78;4981338;28;20026;-90
2022/04/01 09:31:06;;;;;;;8.05;2.33;;;;;;;9.75;100.00;92156.56;4981333;28;20033;-90
2022/04/01 09:33:48;;;;;;;6.82;2.10;;;;;;;9.55;100.00;92154.66;4981510;28;20030;-90
2022/04/01 09:36:29;;;;;;;10.52;2.47;;;;;;;9.85;100.00;92158.03;4998426;28;20044;-90
2022/04/01 09:39:10;;;;;;;5.65;2.08;;;;;;;10.42;100.00;92139.50;4965871;28;20034;-91
2022/04/01 09:41:59;;;;;;;9.05;2.40;;;;;;;10.84;100.00;92147.31;4981318;28;20089;-90
2022/04/01 09:44:29;;;;;;;11.30;2.13;;;;;;;10.76;99.76;92142.94;4982264;28;20030;-90
2022/04/01 09:47:00;;;;;;;8.52;2.70;;;;;;;10.50;100.00;92145.78;4981217;28;20022;-90
2022/04/01 09:49:40;;;;;;;8.68;2.33;;;;;;;10.19;100.00;92142.44;4981045;28;20022;-90
2022/04/01 09:52:07;;;;;;;6.25;2.45;;;;;;;10.60;100.00;92153.25;4981007;28;20105;-90
2022/04/01 09:54:32;;;;;;;5.60;2.35;;;;;;;10.51;88.35;92152.53;4980862;28;20034;-90
2022/04/01 09:56:59;;;;;;;10.20;2.58;;;;;;;10.62;100.00;92152.94;4980825;28;20367;-90
2022/04/01 09:59:25;;;;;;;8.85;2.53;;;;;;;11.12;100.00;92149.34;4981102;28;20042;-90
2022/04/01 10:01:51;;;;;;;14.25;3.70;;;;;;;11.09;88.50;92150.00;4980944;28;20056;-90
2022/04/01 10:04:17;;;;;;;10.80;2.72;;;;;;;10.70;89.42;92150.22;4980778;28;20066;-90
2022/04/01 10:06:42;;;;;;;9.52;2.85;;;;;;;11.87;90.36;92152.03;4980593;28;20108;-89
2022/04/01 10:09:10;;;;;;;14.38;3.42;;;;;;;11.93;99.55;92149.94;4980840;28;20042;-90
2022/04/01 10:11:38;;;;;;;10.82;3.22;;;;;;;12.26;79.23;92147.19;4980763;28;20034;-90
2022/04/01 10:14:19;;;;;;;11.73;2.80;;;;;;;12.33;78.00;92149.25;4980713;28;20073;-90
2022/04/01 10:16:45;;;;;;;11.70;3.25;;;;;;;11.91;70.84;92150.28;4980614;28;20030;-90
2022/04/01 10:19:21;;;;;;;10.18;2.75;;;;;;;12.38;73.63;92158.75;4980392;28;20030;-90
2022/04/01 10:21:46;;;;;;;10.90;3.20;;;;;;;12.55;71.43;92162.97;4980475;28;20058;-90
2022/04/01 10:24:22;;;;;;;9.35;3.05;;;;;;;12.25;65.71;92164.03;4980806;28;20143;-90
2022/04/01 10:27:27;;;;;;;8.05;2.15;;;;;;;12.75;84.86;92160.50;4980417;28;20040;-90
2022/04/01 10:29:56;;;;;;;12.05;2.75;;;;;;;12.08;69.15;92154.53;4974484;28;20038;-90
2022/04/01 10:32:22;;;;;;;11.00;3.35;;;;;;;12.06;71.54;92153.38;4996536;28;20332;-90
2022/04/01 10:34:49;;;;;;;14.02;2.67;;;;;;;12.13;72.18;92146.47;4997400;28;20026;-90
2022/04/01 10:37:15;;;;;;;13.25;3.10;;;;;;;11.93;73.91;92148.09;4994997;28;20036;-88
2022/04/01 10:39:48;;;;;;;10.63;2.83;;;;;;;12.72;72.01;92157.44;5016431;28;20029;-89
2022/04/01 10:42:13;;;;;;;13.45;3.20;;;;;;;12.50;60.96;92160.59;5016078;28;20335;-89
2022/04/01 10:44:56;;;;;;;8.40;2.72;;;;;;;12.71;61.26;92150.66;5016396;28;20026;-88
2022/04/01 10:53:59;;;;;;;8.02;2.30;;;;;;;12.40;65.14;92161.81;5016553;28;20359;-89
2022/04/01 10:56:26;;;;;;;17.52;2.90;;;;;;;12.46;72.70;92165.72;4983601;28;20021;-88
2022/04/01 10:59:07;;;;;;;14.48;2.17;;;;;;;13.28;59.14;92165.59;4999633;28;20057;-89
2022/04/01 11:01:52;;;;;;;10.48;2.60;;;;;;;12.86;66.02;92169.44;5016986;28;20034;-89
2022/04/01 11:04:17;;;;;;;11.00;2.33;;;;;;;12.40;62.63;92167.06;4999244;28;20040;-89
2022/04/01 11:06:55;;;;;;;10.55;2.28;;;;;;;12.94;63.24;92175.66;5016618;28;20025;-90
2022/04/01 11:09:47;;;;;;;11.63;2.60;;;;;;;12.47;60.93;92169.88;4983234;28;20057;-89
2022/04/01 11:12:15;;;;;;;9.48;2.50;;;;;;;12.53;68.69;92165.16;5013140;28;20041;-88
2022/04/01 11:17:55;;;;;;;8.18;2.42;;;;;;;12.73;60.07;92172.13;5006294;28;20111;-90
2022/04/01 11:20:32;;;;;;;8.95;2.60;;;;;;;12.83;61.25;92170.88;4988976;28;20038;-88
2022/04/01 11:22:59;;;;;;;12.80;2.53;;;;;;;12.83;67.25;92170.88;4999093;28;20030;-90
2022/04/01 11:25:25;;;;;;;12.90;2.80;;;;;;;13.04;63.56;92163.88;5016604;28;20427;-88
2022/04/01 11:28:14;;;;;;;9.93;2.58;;;;;;;13.93;64.41;92167.16;5016824;28;20151;-87
2022/04/01 11:31:06;;;;;;;11.65;2.47;;;;;;;14.43;58.07;92169.34;4983849;28;20120;-89
2022/04/01 11:33:32;;;;;;;11.48;2.70;;;;;;;14.36;57.83;92162.06;4996192;28;20095;-89
2022/04/01 11:35:58;;;;;;;14.20;2.33;;;;;;;14.64;65.79;92163.00;5016884;28;20446;-88
2022/04/01 11:38:26;;;;;;;11.77;2.75;;;;;;;13.92;59.84;92162.25;4983332;28;20033;-89
2022/04/01 11:40:58;;;;;;;8.52;2.30;;;;;;;14.17;61.54;92169.94;4999222;28;20531;-88
2022/04/01 11:43:26;;;;;;;7.63;2.40;;;;;;;12.59;69.57;92169.84;4999499;28;20037;-88
2022/04/01 11:45:59;;;;;;;9.52;2.30;;;;;;;11.40;80.92;92182.81;4999131;28;20121;-87
2022/04/01 11:48:45;;;;;;;;;;;;;;;11.79;81.86;92171.28;5000313;28;20033;-87
2022/04/01 11:51:16;;;;;;;11.65;2.55;;;;;;;11.52;79.66;92165.59;4999393;28;20024;-88
2022/04/01 11:53:46;;;;;;;11.13;2.60;;;;;;;12.24;77.96;92173.00;4999206;28;20336;-87
2022/04/01 11:56:12;;;;;;;6.45;1.90;;;;;;;12.40;70.48;92172.31;5016491;28;20116;-88
2022/04/01 11:58:59;;;;;;;5.10;1.73;;;;;;;12.17;82.90;92170.16;4983153;28;20092;-88
2022/04/01 12:01:54;;;;;;;12.20;2.00;;;;;;;11.84;86.42;92165.81;5016602;28;20037;-87
2022/04/01 12:04:26;;;;;;;5.38;1.88;;;;;;;11.92;93.21;92166.78;4985168;28;20495;-88
2022/04/01 12:09:35;;;;;;;8.13;2.00;;;;;;;12.16;85.82;92155.50;5005263;28;20044;-88
2022/04/01 12:12:04;;;;;;;3.28;1.50;;;;;;;12.07;72.51;92158.25;5002664;28;20324;-88